createdAt,value
2019-01-29T00:01:00.695Z,9.10
2019-01-29T00:03:29.443Z,12.18
2019-01-29T00:05:58.116Z,11.08
2019-01-29T00:08:26.803Z,17.48
2019-01-29T00:11:01.294Z,11.85
2019-01-29T00:13:29.880Z,10.43
2019-01-29T00:15:58.584Z,11.97
2019-01-29T00:18:27.252Z,11.15
2019-01-29T00:20:55.912Z,14.58
2019-01-29T00:23:24.678Z,12.58
2019-01-29T00:25:53.347Z,11.03
2019-01-29T00:28:22.096Z,12.10
2019-01-29T00:30:50.802Z,11.88
2019-01-29T00:33:19.520Z,9.65
2019-01-29T00:35:48.202Z,12.07
2019-01-29T00:38:16.885Z,8.38
2019-01-29T00:40:45.594Z,16.07
2019-01-29T00:43:14.437Z,9.73
2019-01-29T00:45:43.149Z,16.45
2019-01-29T00:48:11.833Z,10.23
2019-01-29T00:50:40.554Z,13.28
2019-01-29T00:53:09.230Z,11.90
2019-01-29T00:55:37.921Z,17.95
2019-01-29T00:58:06.603Z,11.83
2019-01-29T01:00:35.304Z,10.32
2019-01-29T01:03:04.191Z,10.35
2019-01-29T01:05:32.858Z,9.03
2019-01-29T01:08:03.709Z,12.37
2019-01-29T01:10:32.442Z,8.30
2019-01-29T01:13:01.210Z,11.93
2019-01-29T01:15:29.909Z,9.33
2019-01-29T01:17:58.723Z,11.80
2019-01-29T01:20:27.469Z,9.78
2019-01-29T01:22:56.187Z,9.38
2019-01-29T01:25:24.889Z,10.45
2019-01-29T01:27:53.550Z,9.53
2019-01-29T01:30:22.229Z,9.53
2019-01-29T01:32:50.967Z,6.83
2019-01-29T01:35:19.717Z,8.00
2019-01-29T01:37:48.390Z,9.55
2019-01-29T01:40:21.035Z,8.00
2019-01-29T01:42:49.695Z,11.05
2019-01-29T01:45:18.461Z,9.58
2019-01-29T01:47:47.165Z,10.35
2019-01-29T01:50:15.935Z,6.28
2019-01-29T01:52:44.700Z,7.45
2019-01-29T01:55:14.532Z,7.05
2019-01-29T01:57:43.284Z,11.15
2019-01-29T02:00:13.573Z,10.43
2019-01-29T02:02:42.321Z,9.33
2019-01-29T02:05:11.025Z,7.47
2019-01-29T02:07:39.812Z,9.38
2019-01-29T02:10:15.756Z,11.33
2019-01-29T02:12:44.455Z,10.18
2019-01-29T02:15:16.240Z,7.67
2019-01-29T02:17:44.929Z,7.08
2019-01-29T02:20:13.981Z,6.78
2019-01-29T02:22:42.718Z,9.58
2019-01-29T02:25:11.637Z,8.68
2019-01-29T02:27:40.481Z,9.45
2019-01-29T02:30:11.006Z,8.63
2019-01-29T02:32:39.730Z,8.58
2019-01-29T02:35:08.462Z,7.42
2019-01-29T02:37:37.235Z,10.25
2019-01-29T02:40:07.429Z,8.90
2019-01-29T02:42:36.135Z,8.85
2019-01-29T02:45:05.758Z,13.32
2019-01-29T02:47:34.503Z,10.05
2019-01-29T02:50:03.229Z,8.53
2019-01-29T02:52:31.906Z,9.00
2019-01-29T02:55:00.695Z,10.38
2019-01-29T02:57:29.367Z,9.63
2019-01-29T02:59:58.114Z,7.28
2019-01-29T03:02:26.855Z,7.47
2019-01-29T03:04:55.527Z,11.25
2019-01-29T03:07:24.293Z,8.13
2019-01-29T03:09:53.009Z,9.80
2019-01-29T03:12:21.650Z,11.10
2019-01-29T03:14:50.508Z,6.45
2019-01-29T03:17:19.248Z,9.67
2019-01-29T03:19:47.915Z,10.08
2019-01-29T03:22:16.640Z,7.42
2019-01-29T03:24:45.301Z,10.30
2019-01-29T03:27:13.962Z,7.60
2019-01-29T03:29:42.667Z,9.48
2019-01-29T03:32:11.334Z,9.90
2019-01-29T03:34:40.083Z,10.50
2019-01-29T03:37:08.793Z,11.48
2019-01-29T03:39:37.540Z,11.53
2019-01-29T06:53:23.155Z,15.03
2019-01-29T06:58:53.299Z,13.70
2019-01-29T07:01:22.207Z,13.55
2019-01-29T07:03:51.124Z,13.90
2019-01-29T07:06:21.329Z,14.70
2019-01-29T07:23:10.097Z,12.55
2019-01-29T16:14:36.587Z,12.85
2019-01-29T16:17:05.577Z,11.55
2019-01-29T16:19:34.545Z,10.30
2019-01-29T16:22:03.380Z,9.43
2019-01-29T16:27:56.142Z,10.60
2019-01-29T16:33:52.700Z,12.05
2019-01-29T16:36:40.387Z,11.15
2019-01-29T16:39:09.995Z,11.97
2019-01-29T16:47:06.980Z,10.88
2019-01-29T16:49:35.995Z,12.13
2019-01-29T16:52:07.263Z,14.10
2019-01-29T16:54:49.279Z,11.45
2019-01-29T16:57:21.090Z,9.93
2019-01-29T17:38:08.280Z,15.98
2019-01-29T17:40:40.156Z,14.20
2019-01-29T17:43:34.756Z,11.90
2019-01-29T17:48:56.479Z,16.52
2019-01-29T17:51:25.521Z,12.98
2019-01-29T17:53:57.594Z,9.80
2019-01-29T17:56:26.463Z,13.48
2019-01-29T17:58:55.359Z,17.82
2019-01-29T18:01:24.199Z,14.73
2019-01-29T18:03:53.107Z,16.77
2019-01-29T18:06:22.017Z,17.15
2019-01-29T18:08:50.986Z,20.80
2019-01-29T18:11:21.265Z,20.10
2019-01-29T18:13:57.026Z,18.40
2019-01-29T18:16:25.958Z,20.08
2019-01-29T18:18:55.283Z,21.40
2019-01-29T18:21:24.095Z,18.57
2019-01-29T18:23:53.023Z,18.73
2019-01-29T18:26:21.829Z,21.05
2019-01-29T18:28:50.817Z,18.55
2019-01-29T18:31:19.916Z,15.75
2019-01-29T18:33:48.756Z,18.85
2019-01-29T18:36:17.630Z,16.27
2019-01-29T18:38:46.516Z,20.72
2019-01-29T18:41:15.234Z,17.20
2019-01-29T18:43:44.136Z,15.60
2019-01-29T18:46:14.089Z,14.47
2019-01-29T18:48:43.086Z,15.25
2019-01-29T18:51:12.004Z,18.07
2019-01-29T18:53:40.924Z,14.15
2019-01-29T18:56:09.681Z,16.17
2019-01-29T18:58:38.367Z,14.83
2019-01-29T19:01:07.242Z,14.65
2019-01-29T19:03:36.233Z,13.25
2019-01-29T19:06:04.963Z,15.75
2019-01-29T19:08:33.732Z,13.08
2019-01-29T19:11:16.490Z,15.58
2019-01-29T19:13:45.199Z,12.23
2019-01-29T19:16:15.704Z,28.40
2019-01-29T19:18:44.512Z,13.03
2019-01-29T19:21:23.683Z,10.50
2019-01-29T19:23:52.431Z,14.05
2019-01-29T19:26:22.261Z,14.75
2019-01-29T19:28:51.289Z,12.18
2019-01-29T19:34:31.483Z,15.95
2019-01-29T19:37:03.100Z,13.05
2019-01-29T19:39:31.332Z,16.95
2019-01-29T19:42:00.214Z,14.93
2019-01-29T19:44:29.087Z,14.30
2019-01-29T19:47:04.983Z,13.72
2019-01-29T19:49:34.042Z,13.53
2019-01-29T19:52:02.903Z,15.70
2019-01-29T19:54:34.837Z,13.43
2019-01-29T19:57:03.976Z,13.28
2019-01-29T19:59:32.906Z,16.37
2019-01-29T20:02:01.876Z,15.32
2019-01-29T20:10:49.486Z,16.40
2019-01-29T20:30:14.395Z,13.22
2019-01-29T20:32:53.460Z,13.98
2019-01-29T20:35:27.078Z,20.43
2019-01-29T20:41:01.677Z,12.25
2019-01-29T20:43:30.540Z,12.05
2019-01-29T20:45:59.391Z,14.07
2019-01-29T20:48:28.180Z,14.73
2019-01-29T20:50:59.993Z,14.23
2019-01-29T20:53:28.838Z,15.58
2019-01-29T20:55:57.842Z,14.83
2019-01-29T20:58:30.511Z,14.43
2019-01-29T21:00:59.359Z,16.97
2019-01-29T21:03:28.158Z,18.82
2019-01-29T21:05:57.107Z,16.80
2019-01-29T21:08:26.245Z,20.88
2019-01-29T21:10:55.023Z,17.25
2019-01-29T21:13:23.963Z,17.00
2019-01-29T21:15:52.893Z,14.33
2019-01-29T21:18:21.690Z,19.30
2019-01-29T21:20:56.791Z,17.25
2019-01-29T21:23:21.203Z,16.00
2019-01-29T21:25:50.046Z,16.57
2019-01-29T21:28:18.784Z,19.35
2019-01-29T21:30:47.875Z,18.98
2019-01-29T21:33:16.687Z,16.55
2019-01-29T21:35:48.472Z,19.73
2019-01-29T21:38:17.291Z,21.93
2019-01-29T21:40:46.037Z,19.15
2019-01-29T21:43:15.016Z,20.27
2019-01-29T21:45:43.835Z,21.23
2019-01-29T21:48:12.626Z,21.07
2019-01-29T21:50:43.442Z,21.95
2019-01-29T21:53:16.406Z,23.92
2019-01-29T21:55:46.157Z,20.88
2019-01-29T21:58:14.925Z,22.75
2019-01-29T22:00:44.393Z,20.92
2019-01-29T22:03:13.554Z,17.10
2019-01-29T22:05:42.689Z,18.75
2019-01-29T22:08:11.808Z,19.48
2019-01-29T22:13:33.825Z,18.23
2019-01-29T22:19:37.141Z,18.17
2019-01-29T22:22:06.164Z,21.45
2019-01-29T22:24:35.079Z,21.68
2019-01-29T22:27:06.552Z,20.17
2019-01-29T22:29:37.472Z,16.87
2019-01-29T22:32:06.731Z,20.30
2019-01-29T22:34:35.982Z,17.42
2019-01-29T22:37:20.126Z,19.62
2019-01-29T22:39:49.355Z,19.32
2019-01-29T22:42:18.345Z,20.35
2019-01-29T22:44:47.224Z,17.95
2019-01-29T22:50:39.952Z,16.62
2019-01-29T22:53:56.357Z,20.80
2019-01-29T22:56:47.815Z,24.35
2019-01-29T22:59:18.372Z,19.20
2019-01-29T23:01:47.285Z,19.80
2019-01-29T23:04:36.269Z,19.12
2019-01-29T23:07:15.646Z,17.35
2019-01-29T23:09:44.344Z,22.67
2019-01-29T23:12:13.038Z,18.52
2019-01-29T23:14:41.746Z,19.62
2019-01-29T23:17:10.465Z,17.95
2019-01-29T23:19:39.297Z,25.23
2019-01-29T23:22:08.102Z,21.37
2019-01-29T23:24:36.894Z,16.80
2019-01-29T23:27:05.768Z,16.90
2019-01-29T23:29:43.170Z,20.10
2019-01-29T23:32:05.170Z,18.52
2019-01-29T23:34:33.881Z,18.42
2019-01-29T23:37:02.634Z,17.87
2019-01-29T23:39:31.352Z,20.45
2019-01-29T23:42:00.089Z,17.02
2019-01-29T23:44:28.766Z,20.27
2019-01-29T23:46:57.496Z,17.70
2019-01-29T23:49:26.256Z,18.82
2019-01-29T23:51:55.088Z,21.65
2019-01-29T23:54:23.822Z,18.32
2019-01-29T23:56:52.604Z,20.57
2019-01-29T23:59:21.293Z,19.75
